createdAt,value
2018-08-14T00:00:57.707Z,0.20
2018-08-14T00:03:26.667Z,0.13
2018-08-14T00:05:55.723Z,0.30
2018-08-14T00:08:24.712Z,0.30
2018-08-14T00:10:54.373Z,0.30
2018-08-14T00:13:23.562Z,0.30
2018-08-14T00:15:57.452Z,0.10
2018-08-14T00:18:26.447Z,0.30
2018-08-14T00:20:55.441Z,0.30
2018-08-14T00:23:24.429Z,0.23
2018-08-14T00:26:02.919Z,0.37
2018-08-14T00:28:42.825Z,0.30
2018-08-14T00:31:14.974Z,0.30
2018-08-14T00:33:44.828Z,0.23
2018-08-14T00:36:19.923Z,0.20
2018-08-14T00:38:54.929Z,0.37
2018-08-14T00:41:27.277Z,0.20
2018-08-14T00:44:03.353Z,0.30
2018-08-14T00:46:34.346Z,0.20
2018-08-14T00:49:05.789Z,0.40
2018-08-14T00:51:36.211Z,0.30
2018-08-14T00:54:09.707Z,0.20
2018-08-14T00:56:39.073Z,0.30
2018-08-14T00:59:08.348Z,0.30
2018-08-14T01:01:37.337Z,0.40
2018-08-14T01:04:06.480Z,0.30
2018-08-14T01:06:35.419Z,0.20
2018-08-14T01:09:06.222Z,0.20
2018-08-14T01:11:35.365Z,0.30
2018-08-14T01:14:04.935Z,0.30
2018-08-14T01:16:33.876Z,0.10
2018-08-14T01:19:03.041Z,0.20
2018-08-14T01:21:32.054Z,0.20
2018-08-14T01:24:01.048Z,0.27
2018-08-14T01:26:29.985Z,0.20
2018-08-14T01:28:59.390Z,0.17
2018-08-14T01:31:28.369Z,0.30
2018-08-14T01:33:57.349Z,0.27
2018-08-14T01:36:26.316Z,0.20
2018-08-14T01:38:55.335Z,0.30
2018-08-14T01:41:24.807Z,0.10
2018-08-14T01:43:54.491Z,0.20
2018-08-14T01:46:30.388Z,0.30
2018-08-14T01:48:59.387Z,0.20
2018-08-14T01:51:28.371Z,0.20
2018-08-14T01:53:57.365Z,0.20
2018-08-14T01:56:26.316Z,0.20
2018-08-14T01:58:55.387Z,0.30
2018-08-14T02:01:24.377Z,0.20
2018-08-14T02:03:53.356Z,0.33
2018-08-14T02:06:22.322Z,0.10
2018-08-14T02:08:51.442Z,0.30
2018-08-14T02:11:20.376Z,0.13
2018-08-14T02:13:49.347Z,0.30
2018-08-14T02:16:18.545Z,0.20
2018-08-14T02:18:47.516Z,0.20
2018-08-14T02:21:16.520Z,0.20
2018-08-14T02:23:45.524Z,0.10
2018-08-14T02:26:14.456Z,0.20
2018-08-14T02:28:43.379Z,0.20
2018-08-14T02:31:12.308Z,0.23
2018-08-14T02:33:41.251Z,0.20
2018-08-14T02:36:10.309Z,0.30
2018-08-14T02:38:39.284Z,0.10
2018-08-14T02:41:08.868Z,0.20
2018-08-14T02:43:37.805Z,0.20
2018-08-14T02:46:06.853Z,0.20
2018-08-14T02:48:35.804Z,0.30
2018-08-14T02:51:04.758Z,0.30
2018-08-14T02:53:33.720Z,0.10
2018-08-14T02:56:02.697Z,0.30
2018-08-14T02:58:31.789Z,0.20
2018-08-14T03:01:00.778Z,0.23
2018-08-14T03:03:29.738Z,0.30
2018-08-14T03:05:58.659Z,0.30
2018-08-14T03:08:27.593Z,0.30
2018-08-14T03:10:56.510Z,0.30
2018-08-14T03:13:25.458Z,0.30
2018-08-14T03:15:54.523Z,0.20
2018-08-14T03:18:23.435Z,0.20
2018-08-14T03:20:52.477Z,0.20
2018-08-14T03:23:21.403Z,0.20
2018-08-14T03:25:50.356Z,0.30
2018-08-14T03:28:19.279Z,0.20
2018-08-14T03:30:48.281Z,0.23
2018-08-14T03:33:17.291Z,0.27
2018-08-14T03:35:46.279Z,0.30
2018-08-14T03:38:15.248Z,0.30
2018-08-14T03:40:44.222Z,0.30
2018-08-14T03:43:17.340Z,0.30
2018-08-14T03:45:46.570Z,0.30
2018-08-14T03:48:15.501Z,0.30
2018-08-14T03:50:44.512Z,0.20
2018-08-14T03:53:13.459Z,0.17
2018-08-14T03:55:42.427Z,0.20
2018-08-14T03:58:11.352Z,0.33
2018-08-14T04:00:40.301Z,0.20
2018-08-14T04:03:09.268Z,0.20
2018-08-14T04:05:38.267Z,0.20
2018-08-14T04:08:07.259Z,0.10
2018-08-14T04:10:36.227Z,0.20
2018-08-14T04:13:06.073Z,0.20
2018-08-14T04:15:35.062Z,0.20
2018-08-14T04:18:09.944Z,0.30
2018-08-14T04:20:39.404Z,0.20
2018-08-14T04:23:09.028Z,0.20
2018-08-14T04:25:39.096Z,0.20
2018-08-14T04:28:08.080Z,0.20
2018-08-14T04:30:37.074Z,0.10
2018-08-14T04:33:06.071Z,0.20
2018-08-14T04:35:35.015Z,0.20
2018-08-14T04:38:03.988Z,0.20
2018-08-14T04:40:33.068Z,0.20
2018-08-14T04:43:02.183Z,0.20
2018-08-14T04:45:31.156Z,0.20
2018-08-14T04:48:00.172Z,0.20
2018-08-14T04:50:29.141Z,0.30
2018-08-14T04:52:58.123Z,0.13
2018-08-14T04:55:27.041Z,0.20
2018-08-14T04:57:56.400Z,0.20
2018-08-14T05:00:25.456Z,0.20
2018-08-14T05:02:54.496Z,0.20
2018-08-14T05:05:23.158Z,0.30
2018-08-14T05:07:52.135Z,0.30
2018-08-14T05:10:21.100Z,0.20
2018-08-14T05:12:50.177Z,0.20
2018-08-14T05:15:19.452Z,0.10
2018-08-14T05:17:48.488Z,0.27
2018-08-14T05:20:17.465Z,0.20
2018-08-14T05:22:46.432Z,0.27
2018-08-14T05:25:15.347Z,0.20
2018-08-14T05:27:44.331Z,0.30
2018-08-14T05:30:15.411Z,0.40
2018-08-14T05:32:45.707Z,0.30
2018-08-14T05:35:14.684Z,0.30
2018-08-14T05:37:43.678Z,0.30
2018-08-14T05:40:14.262Z,0.20
2018-08-14T05:42:43.420Z,0.20
2018-08-14T05:45:14.109Z,0.30
2018-08-14T05:47:43.165Z,0.20
2018-08-14T05:50:13.798Z,0.10
2018-08-14T05:52:42.896Z,0.17
2018-08-14T05:55:12.033Z,0.20
2018-08-14T05:57:41.204Z,0.20
2018-08-14T06:00:12.737Z,0.20
2018-08-14T06:02:42.002Z,0.20
2018-08-14T06:05:11.116Z,0.30
2018-08-14T06:07:40.080Z,0.30
2018-08-14T06:10:09.959Z,0.30
2018-08-14T06:12:39.314Z,0.33
2018-08-14T06:15:10.372Z,0.30
2018-08-14T06:17:39.655Z,0.40
2018-08-14T06:20:11.091Z,0.40
2018-08-14T06:22:40.504Z,0.30
2018-08-14T06:25:10.487Z,0.40
2018-08-14T06:27:39.866Z,0.40
2018-08-14T06:30:13.209Z,0.40
2018-08-14T06:32:42.180Z,0.43
2018-08-14T06:35:11.454Z,0.33
2018-08-14T06:37:40.508Z,0.50
2018-08-14T06:40:12.677Z,0.30
2018-08-14T06:42:42.584Z,0.30
2018-08-14T06:45:13.886Z,0.40
2018-08-14T06:47:42.814Z,0.40
2018-08-14T06:50:14.347Z,0.40
2018-08-14T06:52:43.800Z,0.47
2018-08-14T06:55:12.879Z,0.50
2018-08-14T06:57:43.131Z,0.50
2018-08-14T07:00:15.755Z,0.50
2018-08-14T07:02:45.296Z,0.53
2018-08-14T07:05:14.398Z,0.40
2018-08-14T07:07:43.473Z,0.50
2018-08-14T07:10:12.634Z,0.60
2018-08-14T07:12:41.614Z,0.43
2018-08-14T07:15:15.123Z,0.50
2018-08-14T07:17:44.136Z,0.50
2018-08-14T07:20:13.421Z,0.30
2018-08-14T07:22:43.413Z,0.40
2018-08-14T07:25:13.661Z,0.50
2018-08-14T07:27:42.624Z,0.60
2018-08-14T07:30:16.958Z,0.30
2018-08-14T07:32:46.454Z,0.50
2018-08-14T07:35:15.426Z,0.43
2018-08-14T07:37:44.639Z,0.50
2018-08-14T07:40:14.004Z,0.50
2018-08-14T07:42:42.945Z,0.50
2018-08-14T07:45:14.105Z,0.55
2018-08-14T07:47:45.469Z,0.60
2018-08-14T07:50:14.849Z,0.40
2018-08-14T07:52:44.804Z,0.40
2018-08-14T07:55:14.175Z,0.40
2018-08-14T07:57:43.521Z,0.40
2018-08-14T08:00:15.579Z,0.40
2018-08-14T08:02:45.020Z,0.33
2018-08-14T08:05:14.089Z,0.40
2018-08-14T08:07:43.079Z,0.40
2018-08-14T08:10:13.986Z,0.43
2018-08-14T08:12:43.117Z,0.30
2018-08-14T08:15:13.555Z,0.40
2018-08-14T08:17:43.912Z,0.40
2018-08-14T08:20:26.122Z,0.40
2018-08-14T08:22:55.136Z,0.50
2018-08-14T08:25:24.702Z,0.40
2018-08-14T08:27:53.681Z,0.40
2018-08-14T08:30:22.613Z,0.40
2018-08-14T08:32:51.824Z,0.37
2018-08-14T08:35:20.800Z,0.40
2018-08-14T08:37:49.745Z,0.50
2018-08-14T08:40:18.864Z,0.50
2018-08-14T08:42:47.789Z,0.50
2018-08-14T08:45:17.192Z,0.30
2018-08-14T08:47:46.110Z,0.40
2018-08-14T08:50:15.684Z,0.40
2018-08-14T08:52:45.189Z,0.40
2018-08-14T08:55:16.227Z,0.40
2018-08-14T08:57:45.415Z,0.50
2018-08-14T09:00:15.902Z,0.30
2018-08-14T09:02:44.887Z,0.50
2018-08-14T09:05:16.005Z,0.30
2018-08-14T09:07:45.312Z,0.23
2018-08-14T09:10:14.296Z,0.30
2018-08-14T09:12:43.685Z,0.40
2018-08-14T09:15:12.959Z,0.40
2018-08-14T09:17:42.737Z,0.30
2018-08-14T09:20:13.416Z,0.40
2018-08-14T09:22:42.380Z,0.50
2018-08-14T09:25:13.483Z,0.43
2018-08-14T09:27:43.604Z,0.40
2018-08-14T09:30:14.962Z,0.40
2018-08-14T09:32:43.876Z,0.30
2018-08-14T09:35:17.044Z,0.40
2018-08-14T09:37:49.753Z,0.50
2018-08-14T09:40:21.657Z,0.30
2018-08-14T09:42:53.242Z,0.50
2018-08-14T09:45:22.978Z,0.40
2018-08-14T09:47:52.013Z,0.40
2018-08-14T09:50:25.345Z,0.40
2018-08-14T09:52:56.251Z,0.40
2018-08-14T09:55:25.173Z,0.40
2018-08-14T09:57:54.150Z,0.50
2018-08-14T10:00:30.784Z,0.40
2018-08-14T10:03:06.190Z,0.50
2018-08-14T10:05:40.918Z,0.33
2018-08-14T10:08:13.773Z,0.50
2018-08-14T10:10:43.357Z,0.50
2018-08-14T10:13:13.188Z,0.50
2018-08-14T10:15:45.544Z,0.40
2018-08-14T10:18:19.302Z,0.40
2018-08-14T10:20:48.878Z,0.45
2018-08-14T10:23:18.448Z,0.55
2018-08-14T10:25:48.614Z,0.50
2018-08-14T10:28:23.744Z,0.43
2018-08-14T10:30:53.558Z,0.40
2018-08-14T10:33:23.495Z,0.40
2018-08-14T10:35:53.275Z,0.30
2018-08-14T10:38:22.906Z,0.43
2018-08-14T10:40:52.014Z,0.50
2018-08-14T10:43:21.201Z,0.40
2018-08-14T10:45:51.668Z,0.50
2018-08-14T10:48:21.011Z,0.50
2018-08-14T10:50:50.767Z,0.40
2018-08-14T10:53:20.957Z,0.40
2018-08-14T10:55:50.338Z,0.57
2018-08-14T10:58:19.553Z,0.50
2018-08-14T11:00:49.067Z,0.47
2018-08-14T11:03:20.140Z,0.40
2018-08-14T11:05:49.515Z,0.40
2018-08-14T11:08:18.962Z,0.43
2018-08-14T11:10:53.760Z,0.37
2018-08-14T11:13:23.664Z,0.40
2018-08-14T11:15:53.317Z,0.40
2018-08-14T11:18:24.362Z,0.60
2018-08-14T11:20:54.796Z,0.40
2018-08-14T11:23:24.548Z,0.50
2018-08-14T11:25:54.507Z,0.40
2018-08-14T11:28:24.925Z,0.50
2018-08-14T11:30:54.981Z,0.50
2018-08-14T11:33:31.778Z,0.40
2018-08-14T11:36:05.781Z,0.53
2018-08-14T11:38:36.739Z,0.50
2018-08-14T11:41:06.188Z,0.30
2018-08-14T11:43:35.761Z,0.47
2018-08-14T11:46:05.165Z,0.50
2018-08-14T11:48:34.990Z,0.53
2018-08-14T11:51:07.559Z,0.50
2018-08-14T11:53:37.877Z,0.33
2018-08-14T11:56:07.710Z,0.30
2018-08-14T11:58:37.439Z,0.50
2018-08-14T12:01:06.611Z,0.33
2018-08-14T12:03:36.218Z,0.40
2018-08-14T12:06:07.090Z,0.40
2018-08-14T12:08:37.327Z,0.60
2018-08-14T12:11:06.515Z,0.50
2018-08-14T12:13:35.901Z,0.57
2018-08-14T12:16:06.791Z,0.50
2018-08-14T12:18:38.284Z,0.40
2018-08-14T12:21:11.572Z,0.53
2018-08-14T12:23:41.592Z,0.50
2018-08-14T12:26:10.701Z,0.40
2018-08-14T12:28:39.706Z,0.40
2018-08-14T12:31:08.677Z,0.40
2018-08-14T12:33:38.580Z,0.50
2018-08-14T12:36:07.936Z,0.50
2018-08-14T12:38:37.290Z,0.50
2018-08-14T12:41:06.500Z,0.50
2018-08-14T12:43:35.473Z,0.40
2018-08-14T12:46:04.729Z,0.60
2018-08-14T12:48:33.875Z,0.40
2018-08-14T12:51:03.740Z,0.50
2018-08-14T12:53:33.092Z,0.50
2018-08-14T12:56:06.947Z,0.60
2018-08-14T12:58:36.334Z,0.40
2018-08-14T13:01:05.918Z,0.50
2018-08-14T13:03:35.425Z,0.43
2018-08-14T13:06:04.845Z,0.40
2018-08-14T13:08:34.337Z,0.50
2018-08-14T13:11:03.468Z,0.57
2018-08-14T13:13:34.637Z,0.40
2018-08-14T13:16:04.855Z,0.50
2018-08-14T13:18:34.860Z,0.40
2018-08-14T13:21:08.604Z,0.43
2018-08-14T13:23:38.261Z,0.42
2018-08-14T13:26:07.369Z,0.45
2018-08-14T13:28:36.702Z,0.47
2018-08-14T13:31:05.633Z,0.50
2018-08-14T13:33:34.694Z,0.50
2018-08-14T13:36:06.563Z,0.50
2018-08-14T13:38:35.572Z,0.50
2018-08-14T13:41:04.526Z,0.42
2018-08-14T13:43:33.475Z,0.62
2018-08-14T13:46:02.922Z,0.50
2018-08-14T13:48:31.987Z,0.50
2018-08-14T13:51:00.951Z,0.50
2018-08-14T13:53:29.968Z,0.40
2018-08-14T13:55:59.003Z,0.50
2018-08-14T13:58:27.979Z,0.50
2018-08-14T14:00:57.040Z,0.40
2018-08-14T14:03:26.572Z,0.40
2018-08-14T14:05:55.712Z,0.30
2018-08-14T14:08:24.804Z,0.40
2018-08-14T14:10:54.077Z,0.40
2018-08-14T14:13:23.395Z,0.40
2018-08-14T14:15:53.178Z,0.37
2018-08-14T14:18:22.228Z,0.50
2018-08-14T14:20:51.273Z,0.40
2018-08-14T14:23:20.423Z,0.40
2018-08-14T14:25:49.642Z,0.33
2018-08-14T14:28:18.682Z,0.43
2018-08-14T14:30:47.670Z,0.40
2018-08-14T14:33:17.536Z,0.30
2018-08-14T14:35:46.496Z,0.50
2018-08-14T14:38:15.544Z,0.60
2018-08-14T14:40:45.211Z,0.43
2018-08-14T14:43:14.342Z,0.40
2018-08-14T14:45:43.358Z,0.33
2018-08-14T14:48:12.328Z,0.50
2018-08-14T14:50:41.371Z,0.50
2018-08-14T14:53:10.512Z,0.37
2018-08-14T14:55:41.464Z,0.50
2018-08-14T14:58:10.572Z,0.50
2018-08-14T15:00:39.907Z,0.40
2018-08-14T15:03:09.337Z,0.40
2018-08-14T15:05:38.972Z,0.30
2018-08-14T15:08:08.106Z,0.40
2018-08-14T15:10:37.027Z,0.53
2018-08-14T15:13:06.031Z,0.50
2018-08-14T15:15:34.952Z,0.50
2018-08-14T15:18:03.899Z,0.50
2018-08-14T15:20:32.866Z,0.68
2018-08-14T15:23:01.781Z,0.50
2018-08-14T15:25:31.060Z,0.60
2018-08-14T15:29:07.668Z,0.30
2018-08-14T15:31:38.570Z,0.43
2018-08-14T15:34:12.815Z,0.47
2018-08-14T15:36:42.580Z,0.40
2018-08-14T15:39:12.624Z,0.50
2018-08-14T15:41:41.928Z,0.47
2018-08-14T15:44:11.399Z,0.30
2018-08-14T15:46:40.359Z,0.33
2018-08-14T15:49:09.776Z,0.40
2018-08-14T15:51:39.388Z,0.50
2018-08-14T15:54:09.757Z,0.50
2018-08-14T15:56:39.603Z,0.40
2018-08-14T15:59:08.874Z,0.50
2018-08-14T16:01:38.057Z,0.30
2018-08-14T16:04:09.331Z,0.50
2018-08-14T16:06:38.266Z,0.50
2018-08-14T16:09:11.089Z,0.60
2018-08-14T16:11:40.084Z,0.50
2018-08-14T16:14:09.722Z,0.50
2018-08-14T16:16:38.775Z,0.50
2018-08-14T16:19:08.402Z,0.40
2018-08-14T16:21:37.541Z,0.40
2018-08-14T16:24:06.565Z,0.50
2018-08-14T16:26:35.503Z,0.50
2018-08-14T16:29:05.032Z,0.30
2018-08-14T16:31:33.976Z,0.37
2018-08-14T16:34:03.599Z,0.37
2018-08-14T16:36:38.747Z,0.47
2018-08-14T16:39:09.512Z,0.43
2018-08-14T16:41:38.450Z,0.40
2018-08-14T16:44:07.876Z,0.40
2018-08-14T16:46:37.043Z,0.43
2018-08-14T16:49:06.072Z,0.60
2018-08-14T16:51:35.185Z,0.40
2018-08-14T16:54:04.188Z,0.37
2018-08-14T16:56:33.112Z,0.30
2018-08-14T16:59:02.142Z,0.40
2018-08-14T17:01:31.131Z,0.30
2018-08-14T17:04:00.247Z,0.40
2018-08-14T17:06:29.181Z,0.40
2018-08-14T17:08:59.436Z,0.30
2018-08-14T17:11:28.506Z,0.30
2018-08-14T17:13:57.428Z,0.27
2018-08-14T17:16:26.326Z,0.10
2018-08-14T17:18:55.495Z,0.30
2018-08-14T17:21:23.454Z,0.37
2018-08-14T17:23:52.692Z,0.27
2018-08-14T17:26:21.617Z,0.30
2018-08-14T17:28:50.560Z,0.30
2018-08-14T17:31:19.648Z,0.30
2018-08-14T17:33:48.708Z,0.30
2018-08-14T17:36:17.665Z,0.17
2018-08-14T17:38:46.969Z,0.30
2018-08-14T17:41:15.966Z,0.20
2018-08-14T17:43:44.920Z,0.20
2018-08-14T17:46:13.949Z,0.20
2018-08-14T17:48:42.859Z,0.40
2018-08-14T17:51:11.947Z,0.40
2018-08-14T17:53:40.906Z,0.30
2018-08-14T17:56:09.849Z,0.30
2018-08-14T17:58:38.758Z,0.20
2018-08-14T18:01:07.708Z,0.30
2018-08-14T18:03:36.657Z,0.20
2018-08-14T18:06:05.772Z,0.30
2018-08-14T18:08:34.772Z,0.23
2018-08-14T18:11:03.730Z,0.20
2018-08-14T18:13:32.649Z,0.33
2018-08-14T18:16:01.580Z,0.27
2018-08-14T18:18:30.495Z,0.30
2018-08-14T18:20:59.448Z,0.50
2018-08-14T18:23:31.780Z,0.20
2018-08-14T18:26:00.718Z,0.37
2018-08-14T18:28:29.715Z,0.20
2018-08-14T18:30:58.743Z,0.20
2018-08-14T18:33:27.832Z,0.30
2018-08-14T18:35:56.666Z,0.30
2018-08-14T18:38:25.613Z,0.37
2018-08-14T18:40:54.600Z,0.20
2018-08-14T18:43:23.540Z,0.10
2018-08-14T18:45:52.506Z,0.43
2018-08-14T18:48:21.519Z,0.20
2018-08-14T18:50:50.523Z,0.30
2018-08-14T18:53:19.486Z,0.40
2018-08-14T18:55:48.398Z,0.30
2018-08-14T18:58:17.328Z,0.27
2018-08-14T19:00:46.439Z,0.40
2018-08-14T19:03:16.836Z,0.30
2018-08-14T19:05:45.878Z,0.23
2018-08-14T19:08:14.804Z,0.20
2018-08-14T19:10:43.757Z,0.20
2018-08-14T19:13:12.718Z,0.23
2018-08-14T19:15:41.639Z,0.30
2018-08-14T19:18:11.761Z,0.23
2018-08-14T19:20:40.960Z,0.30
2018-08-14T19:23:10.045Z,0.23
2018-08-14T19:25:39.015Z,0.37
2018-08-14T19:28:07.942Z,0.37
2018-08-14T19:30:36.906Z,0.20
2018-08-14T19:33:05.868Z,0.40
2018-08-14T19:35:35.015Z,0.30
2018-08-14T19:38:03.924Z,0.30
2018-08-14T19:40:32.885Z,0.30
2018-08-14T19:43:02.029Z,0.30
2018-08-14T19:45:30.907Z,0.20
2018-08-14T19:47:59.885Z,0.30
2018-08-14T19:50:28.834Z,0.30
2018-08-14T19:52:57.779Z,0.20
2018-08-14T19:55:26.704Z,0.20
2018-08-14T19:57:55.940Z,0.27
2018-08-14T20:00:26.165Z,0.30
2018-08-14T20:02:55.650Z,0.50
2018-08-14T20:05:24.898Z,0.40
2018-08-14T20:07:54.139Z,0.30
2018-08-14T20:10:23.476Z,0.37
2018-08-14T20:12:52.450Z,0.30
2018-08-14T20:15:26.968Z,0.30
2018-08-14T20:17:55.950Z,0.43
2018-08-14T20:20:25.163Z,0.40
2018-08-14T20:22:54.159Z,0.30
2018-08-14T20:25:23.152Z,0.30
2018-08-14T20:27:52.191Z,0.20
2018-08-14T20:30:21.264Z,0.30
2018-08-14T20:32:50.100Z,0.30
2018-08-14T20:35:19.069Z,0.30
2018-08-14T20:37:49.006Z,0.20
2018-08-14T20:40:19.732Z,0.23
2018-08-14T20:42:48.661Z,0.30
2018-08-14T20:45:17.620Z,0.27
2018-08-14T20:47:46.630Z,0.30
2018-08-14T20:50:18.115Z,0.20
2018-08-14T20:52:47.511Z,0.30
2018-08-14T20:55:17.364Z,0.37
2018-08-14T20:57:46.316Z,0.30
2018-08-14T21:00:22.350Z,0.30
2018-08-14T21:02:52.056Z,0.20
2018-08-14T21:05:22.165Z,0.30
2018-08-14T21:07:51.178Z,0.20
2018-08-14T21:10:20.247Z,0.20
2018-08-14T21:12:49.165Z,0.27
2018-08-14T21:15:23.804Z,0.30
2018-08-14T21:17:52.813Z,0.17
2018-08-14T21:20:21.776Z,0.30
2018-08-14T21:22:50.800Z,0.23
2018-08-14T21:25:19.787Z,0.30
2018-08-14T21:27:48.740Z,0.30
2018-08-14T21:30:18.384Z,0.20
2018-08-14T21:32:47.350Z,0.40
2018-08-14T21:35:17.276Z,0.23
2018-08-14T21:37:46.264Z,0.23
2018-08-14T21:40:16.783Z,0.20
2018-08-14T21:42:47.023Z,0.30
2018-08-14T21:45:17.249Z,0.30
2018-08-14T21:47:46.660Z,0.30
2018-08-14T21:50:15.583Z,0.30
2018-08-14T21:52:44.636Z,0.30
2018-08-14T21:55:14.325Z,0.20
2018-08-14T21:57:44.074Z,0.30
2018-08-14T22:00:19.212Z,0.20
2018-08-14T22:02:48.160Z,0.20
2018-08-14T22:05:17.590Z,0.27
2018-08-14T22:07:46.989Z,0.20
2018-08-14T22:10:17.908Z,0.30
2018-08-14T22:12:46.844Z,0.30
2018-08-14T22:15:15.980Z,0.40
2018-08-14T22:17:45.101Z,0.40
2018-08-14T22:20:17.377Z,0.40
2018-08-14T22:22:47.253Z,0.40
2018-08-14T22:25:16.311Z,0.30
2018-08-14T22:27:45.395Z,0.30
2018-08-14T22:30:14.710Z,0.30
2018-08-14T22:32:44.515Z,0.30
2018-08-14T22:35:13.520Z,0.30
2018-08-14T22:37:42.473Z,0.30
2018-08-14T22:40:11.387Z,0.30
2018-08-14T22:42:40.348Z,0.30
2018-08-14T22:45:10.104Z,0.20
2018-08-14T22:47:39.852Z,0.23
2018-08-14T22:50:09.515Z,0.30
2018-08-14T22:52:38.830Z,0.20
2018-08-14T22:55:08.730Z,0.20
2018-08-14T22:57:37.876Z,0.40
2018-08-14T23:00:08.887Z,0.40
2018-08-14T23:02:37.708Z,0.27
2018-08-14T23:05:06.909Z,0.20
2018-08-14T23:07:35.971Z,0.30
2018-08-14T23:10:05.669Z,0.27
2018-08-14T23:12:34.776Z,0.30
2018-08-14T23:15:04.671Z,0.20
2018-08-14T23:17:33.616Z,0.20
2018-08-14T23:20:02.613Z,0.37
2018-08-14T23:22:31.553Z,0.40
2018-08-14T23:25:00.581Z,0.30
2018-08-14T23:27:29.516Z,0.50
2018-08-14T23:29:58.480Z,0.20
2018-08-14T23:32:27.386Z,0.20
2018-08-14T23:34:56.336Z,0.30
2018-08-14T23:37:25.346Z,0.30
2018-08-14T23:39:54.359Z,0.20
2018-08-14T23:42:23.296Z,0.30
2018-08-14T23:44:52.217Z,0.20
2018-08-14T23:47:21.182Z,0.40
2018-08-14T23:49:50.112Z,0.20
2018-08-14T23:52:19.097Z,0.30
2018-08-14T23:54:48.023Z,0.30
2018-08-14T23:57:16.989Z,0.20
2018-08-14T23:59:46.027Z,0.17
